sensor_id;sensor_type;location;lat;lon;timestamp;pressure;altitude;pressure_sealevel;temperature;humidity
43430;BME280;29028;43.234;27.896;2022-12-07T05:01:28;100185.72;;;8.22;100.00
43430;BME280;29028;43.234;27.896;2022-12-07T05:01:50;100187.75;;;8.20;100.00
43430;BME280;29028;43.234;27.896;2022-12-07T05:02:11;100182.91;;;8.15;100.00
43430;BME280;29028;43.234;27.896;2022-12-07T05:02:31;100191.13;;;8.14;100.00
43430;BME280;29028;43.234;27.896;2022-12-07T05:02:52;100193.97;;;8.12;100.00
43430;BME280;29028;43.234;27.896;2022-12-07T05:03:14;100186.41;;;8.16;100.00
43430;BME280;29028;43.234;27.896;2022-12-07T05:03:35;100192.78;;;8.15;100.00
43430;BME280;29028;43.234;27.896;2022-12-07T05:03:56;100188.59;;;8.12;100.00
43430;BME280;29028;43.234;27.896;2022-12-07T05:04:17;100195.81;;;8.12;100.00
43430;BME280;29028;43.234;27.896;2022-12-07T05:04:39;100195.63;;;8.13;100.00
43430;BME280;29028;43.234;27.896;2022-12-07T05:05:00;100193.16;;;8.12;100.00
43430;BME280;29028;43.234;27.896;2022-12-07T05:05:20;100194.66;;;8.14;100.00
43430;BME280;29028;43.234;27.896;2022-12-07T05:05:41;100191.13;;;8.14;100.00
43430;BME280;29028;43.234;27.896;2022-12-07T05:06:02;100174.72;;;8.09;100.00
43430;BME280;29028;43.234;27.896;2022-12-07T05:06:24;100183.06;;;8.14;100.00
43430;BME280;29028;43.234;27.896;2022-12-07T05:06:45;100190.94;;;8.15;100.00
43430;BME280;29028;43.234;27.896;2022-12-07T05:07:06;100192.78;;;8.15;100.00
43430;BME280;29028;43.234;27.896;2022-12-07T05:07:27;100186.41;;;8.16;100.00
43430;BME280;29028;43.234;27.896;2022-12-07T05:07:49;100192.78;;;8.15;100.00
43430;BME280;29028;43.234;27.896;2022-12-07T05:08:09;100202.84;;;8.21;100.00
43430;BME280;29028;43.234;27.896;2022-12-07T05:08:31;100189.56;;;8.19;100.00
43430;BME280;29028;43.234;27.896;2022-12-07T05:08:52;100192.25;;;8.19;100.00
43430;BME280;29028;43.234;27.896;2022-12-07T05:09:14;100189.44;;;8.51;100.00
43430;BME280;29028;43.234;27.896;2022-12-07T05:09:35;100193.34;;;9.31;100.00
43430;BME280;29028;43.234;27.896;2022-12-07T05:09:55;100190.06;;;9.43;100.00
43430;BME280;29028;43.234;27.896;2022-12-07T05:10:16;100187.78;;;9.98;100.00
43430;BME280;29028;43.234;27.896;2022-12-07T05:10:38;100194.75;;;10.22;100.00
43430;BME280;29028;43.234;27.896;2022-12-07T05:10:59;100192.25;;;10.06;100.00
43430;BME280;29028;43.234;27.896;2022-12-07T05:11:20;100188.06;;;10.03;100.00
43430;BME280;29028;43.234;27.896;2022-12-07T05:11:59;100189.19;;;9.94;100.00
43430;BME280;29028;43.234;27.896;2022-12-07T05:12:21;100186.41;;;9.88;100.00
43430;BME280;29028;43.234;27.896;2022-12-07T05:12:42;100183.16;;;9.78;100.00
43430;BME280;29028;43.234;27.896;2022-12-07T05:13:02;100184.34;;;9.75;100.00
43430;BME280;29028;43.234;27.896;2022-12-07T05:13:23;100181.38;;;9.70;100.00
43430;BME280;29028;43.234;27.896;2022-12-07T05:13:44;100178.84;;;9.54;100.00
43430;BME280;29028;43.234;27.896;2022-12-07T05:14:09;100178.09;;;9.46;100.00
43430;BME280;29028;43.234;27.896;2022-12-07T05:14:30;100179.56;;;9.34;100.00
43430;BME280;29028;43.234;27.896;2022-12-07T05:14:50;100185.19;;;9.10;100.00
43430;BME280;29028;43.234;27.896;2022-12-07T05:15:12;100186.59;;;8.98;100.00
43430;BME280;29028;43.234;27.896;2022-12-07T05:15:34;100182.03;;;8.84;100.00
43430;BME280;29028;43.234;27.896;2022-12-07T05:15:55;100186.91;;;8.80;100.00
43430;BME280;29028;43.234;27.896;2022-12-07T05:16:16;100189.34;;;8.67;100.00
43430;BME280;29028;43.234;27.896;2022-12-07T05:16:38;100176.78;;;8.60;100.00
43430;BME280;29028;43.234;27.896;2022-12-07T05:17:00;100186.72;;;8.59;100.00
43430;BME280;29028;43.234;27.896;2022-12-07T05:17:21;100189.22;;;8.61;100.00
43430;BME280;29028;43.234;27.896;2022-12-07T05:17:42;100189.22;;;8.61;100.00
43430;BME280;29028;43.234;27.896;2022-12-07T05:18:03;100189.03;;;8.62;100.00
43430;BME280;29028;43.234;27.896;2022-12-07T05:18:24;100196.13;;;8.55;100.00
43430;BME280;29028;43.234;27.896;2022-12-07T05:18:46;100187.13;;;8.48;100.00
43430;BME280;29028;43.234;27.896;2022-12-07T05:19:08;100192.13;;;8.51;100.00
43430;BME280;29028;43.234;27.896;2022-12-07T05:19:29;100188.44;;;8.52;100.00
43430;BME280;29028;43.234;27.896;2022-12-07T05:19:50;100188.44;;;8.52;100.00
43430;BME280;29028;43.234;27.896;2022-12-07T05:20:11;100194.94;;;8.58;100.00
43430;BME280;29028;43.234;27.896;2022-12-07T05:20:32;100194.06;;;8.65;100.00
43430;BME280;29028;43.234;27.896;2022-12-07T05:20:53;100196.09;;;8.63;100.00
43430;BME280;29028;43.234;27.896;2022-12-07T05:21:14;100189.88;;;8.63;100.00
43430;BME280;29028;43.234;27.896;2022-12-07T05:21:36;100204.06;;;8.71;100.00
43430;BME280;29028;43.234;27.896;2022-12-07T05:21:57;100201.94;;;8.67;100.00
43430;BME280;29028;43.234;27.896;2022-12-07T05:22:18;100194.69;;;8.67;100.00
43430;BME280;29028;43.234;27.896;2022-12-07T05:22:40;100202.28;;;8.64;100.00
43430;BME280;29028;43.234;27.896;2022-12-07T05:23:01;100204.19;;;8.55;100.00
43430;BME280;29028;43.234;27.896;2022-12-07T05:23:22;100195.09;;;8.56;100.00
43430;BME280;29028;43.234;27.896;2022-12-07T05:23:43;100196.97;;;8.56;100.00
43430;BME280;29028;43.234;27.896;2022-12-07T05:24:04;100206.38;;;8.52;100.00
43430;BME280;29028;43.234;27.896;2022-12-07T05:24:26;100202.03;;;8.51;100.00
43430;BME280;29028;43.234;27.896;2022-12-07T05:24:47;100208.59;;;8.48;100.00
43430;BME280;29028;43.234;27.896;2022-12-07T05:25:09;100203.38;;;8.47;100.00
43430;BME280;29028;43.234;27.896;2022-12-07T05:25:29;100197.97;;;8.55;100.00
43430;BME280;29028;43.234;27.896;2022-12-07T05:25:51;100197.13;;;8.54;100.00
43430;BME280;29028;43.234;27.896;2022-12-07T05:26:12;100199.13;;;8.60;100.00
43430;BME280;29028;43.234;27.896;2022-12-07T05:26:33;100188.91;;;8.56;100.00
43430;BME280;29028;43.234;27.896;2022-12-07T05:26:54;100200.13;;;8.59;100.00
43430;BME280;29028;43.234;27.896;2022-12-07T05:27:16;100196.13;;;8.55;100.00
43430;BME280;29028;43.234;27.896;2022-12-07T05:27:37;100206.38;;;8.52;100.00
43430;BME280;29028;43.234;27.896;2022-12-07T05:27:58;100198.03;;;8.47;100.00
43430;BME280;29028;43.234;27.896;2022-12-07T05:28:19;100205.06;;;8.48;100.00
43430;BME280;29028;43.234;27.896;2022-12-07T05:28:39;100204.72;;;8.51;100.00
43430;BME280;29028;43.234;27.896;2022-12-07T05:29:01;100202.13;;;8.57;100.00
43430;BME280;29028;43.234;27.896;2022-12-07T05:29:22;100193.81;;;8.52;100.00
43430;BME280;29028;43.234;27.896;2022-12-07T05:29:43;100197.97;;;8.55;100.00
43430;BME280;29028;43.234;27.896;2022-12-07T05:30:06;100195.50;;;8.45;100.00
43430;BME280;29028;43.234;27.896;2022-12-07T05:30:27;100206.00;;;8.55;100.00
43430;BME280;29028;43.234;27.896;2022-12-07T05:30:48;100196.44;;;8.60;100.00
43430;BME280;29028;43.234;27.896;2022-12-07T05:31:09;100194.94;;;8.58;100.00
43430;BME280;29028;43.234;27.896;2022-12-07T05:31:29;100198.66;;;8.49;100.00
43430;BME280;29028;43.234;27.896;2022-12-07T05:31:53;100193.81;;;8.52;100.00
43430;BME280;29028;43.234;27.896;2022-12-07T05:32:13;100198.66;;;8.49;100.00
43430;BME280;29028;43.234;27.896;2022-12-07T05:32:34;100200.53;;;8.48;100.00
43430;BME280;29028;43.234;27.896;2022-12-07T05:32:55;100198.03;;;8.47;100.00
43430;BME280;29028;43.234;27.896;2022-12-07T05:33:17;100190.31;;;8.44;100.00
43430;BME280;29028;43.234;27.896;2022-12-07T05:33:38;100201.88;;;8.44;100.00
43430;BME280;29028;43.234;27.896;2022-12-07T05:33:59;100196.50;;;8.52;100.00
43430;BME280;29028;43.234;27.896;2022-12-07T05:34:19;100188.44;;;8.52;100.00
43430;BME280;29028;43.234;27.896;2022-12-07T05:34:41;100194.00;;;8.43;100.00
43430;BME280;29028;43.234;27.896;2022-12-07T05:35:02;100191.81;;;8.46;100.00
43430;BME280;29028;43.234;27.896;2022-12-07T05:35:23;100197.72;;;8.42;100.00
43430;BME280;29028;43.234;27.896;2022-12-07T05:35:44;100196.34;;;8.46;100.00
43430;BME280;29028;43.234;27.896;2022-12-07T05:36:06;100202.91;;;8.43;100.00
43430;BME280;29028;43.234;27.896;2022-12-07T05:36:27;100197.06;;;8.40;100.00
43430;BME280;29028;43.234;27.896;2022-12-07T05:36:49;100199.75;;;8.40;100.00
43430;BME280;29028;43.234;27.896;2022-12-07T05:37:10;100199.38;;;8.43;100.00
43430;BME280;29028;43.234;27.896;2022-12-07T05:37:32;100199.53;;;8.41;100.00
43430;BME280;29028;43.234;27.896;2022-12-07T05:37:53;100193.00;;;8.44;100.00
43430;BME280;29028;43.234;27.896;2022-12-07T05:38:14;100201.41;;;8.41;100.00
43430;BME280;29028;43.234;27.896;2022-12-07T05:38:35;100195.72;;;8.36;100.00
43430;BME280;29028;43.234;27.896;2022-12-07T05:38:56;100198.25;;;8.37;100.00
43430;BME280;29028;43.234;27.896;2022-12-07T05:39:18;100199.25;;;8.36;100.00
43430;BME280;29028;43.234;27.896;2022-12-07T05:39:38;100190.91;;;8.31;100.00
43430;BME280;29028;43.234;27.896;2022-12-07T05:40:01;100204.13;;;8.33;100.00
43430;BME280;29028;43.234;27.896;2022-12-07T05:40:23;100204.97;;;8.33;100.00
43430;BME280;29028;43.234;27.896;2022-12-07T05:40:43;100202.63;;;8.30;100.00
43430;BME280;29028;43.234;27.896;2022-12-07T05:41:05;100198.28;;;8.29;100.00
43430;BME280;29028;43.234;27.896;2022-12-07T05:41:27;100198.09;;;8.31;100.00
43430;BME280;29028;43.234;27.896;2022-12-07T05:42:08;100197.41;;;8.37;100.00
43430;BME280;29028;43.234;27.896;2022-12-07T05:42:34;100201.09;;;8.36;100.00
43430;BME280;29028;43.234;27.896;2022-12-07T05:42:55;100201.44;;;8.33;100.00
43430;BME280;29028;43.234;27.896;2022-12-07T05:43:16;100201.25;;;8.34;100.00
43430;BME280;29028;43.234;27.896;2022-12-07T05:43:37;100196.91;;;8.33;100.00
43430;BME280;29028;43.234;27.896;2022-12-07T05:43:58;100196.28;;;8.31;100.00
43430;BME280;29028;43.234;27.896;2022-12-07T05:44:20;100201.25;;;8.34;100.00
43430;BME280;29028;43.234;27.896;2022-12-07T05:44:42;100201.44;;;8.33;100.00
43430;BME280;29028;43.234;27.896;2022-12-07T05:45:05;100209.16;;;8.36;100.00
43430;BME280;29028;43.234;27.896;2022-12-07T05:45:27;100203.13;;;8.34;100.00
43430;BME280;29028;43.234;27.896;2022-12-07T05:45:47;100196.28;;;8.31;100.00
43430;BME280;29028;43.234;27.896;2022-12-07T05:46:08;100205.81;;;8.34;100.00
43430;BME280;29028;43.234;27.896;2022-12-07T05:46:29;100199.91;;;8.38;100.00
43430;BME280;29028;43.234;27.896;2022-12-07T05:46:51;100199.75;;;8.40;100.00
43430;BME280;29028;43.234;27.896;2022-12-07T05:47:14;100203.06;;;8.42;100.00
43430;BME280;29028;43.234;27.896;2022-12-07T05:47:35;100202.91;;;8.43;100.00
43430;BME280;29028;43.234;27.896;2022-12-07T05:47:57;100196.53;;;8.44;100.00
43430;BME280;29028;43.234;27.896;2022-12-07T05:48:18;100197.00;;;8.48;100.00
43430;BME280;29028;43.234;27.896;2022-12-07T05:48:39;100195.34;;;8.47;100.00
43430;BME280;29028;43.234;27.896;2022-12-07T05:48:59;100195.16;;;8.48;100.00
43430;BME280;29028;43.234;27.896;2022-12-07T05:49:20;100194.19;;;8.41;100.00
43430;BME280;29028;43.234;27.896;2022-12-07T05:49:42;100192.16;;;8.43;100.00
43430;BME280;29028;43.234;27.896;2022-12-07T05:50:04;100195.88;;;8.42;100.00
43430;BME280;29028;43.234;27.896;2022-12-07T05:50:25;100197.38;;;8.45;100.00
43430;BME280;29028;43.234;27.896;2022-12-07T05:50:47;100198.03;;;8.47;100.00
43430;BME280;29028;43.234;27.896;2022-12-07T05:51:09;100202.19;;;8.49;100.00
43430;BME280;29028;43.234;27.896;2022-12-07T05:51:30;100191.94;;;8.53;100.00
43430;BME280;29028;43.234;27.896;2022-12-07T05:51:50;100189.25;;;8.53;100.00
43430;BME280;29028;43.234;27.896;2022-12-07T05:52:11;100190.28;;;8.52;100.00
43430;BME280;29028;43.234;27.896;2022-12-07T05:52:33;100194.63;;;8.53;100.00
43430;BME280;29028;43.234;27.896;2022-12-07T05:52:57;100182.75;;;8.47;100.00
43430;BME280;29028;43.234;27.896;2022-12-07T05:53:18;100182.41;;;8.50;100.00
43430;BME280;29028;43.234;27.896;2022-12-07T05:53:39;100201.31;;;8.57;100.00
43430;BME280;29028;43.234;27.896;2022-12-07T05:54:00;100188.91;;;8.56;100.00
43430;BME280;29028;43.234;27.896;2022-12-07T05:54:22;100187.72;;;8.58;100.00
43430;BME280;29028;43.234;27.896;2022-12-07T05:54:42;100184.69;;;8.61;100.00
43430;BME280;29028;43.234;27.896;2022-12-07T05:55:04;100196.25;;;8.62;100.00
43430;BME280;29028;43.234;27.896;2022-12-07T05:55:27;100192.88;;;8.68;100.00
43430;BME280;29028;43.234;27.896;2022-12-07T05:55:48;100190.00;;;8.69;100.00
43430;BME280;29028;43.234;27.896;2022-12-07T05:56:08;100188.13;;;8.70;100.00
43430;BME280;29028;43.234;27.896;2022-12-07T05:56:29;100186.47;;;8.69;100.00
43430;BME280;29028;43.234;27.896;2022-12-07T05:56:50;100189.16;;;8.69;100.00
43430;BME280;29028;43.234;27.896;2022-12-07T05:57:12;100195.38;;;8.69;100.00
43430;BME280;29028;43.234;27.896;2022-12-07T05:57:33;100192.88;;;8.68;100.00
43430;BME280;29028;43.234;27.896;2022-12-07T05:57:53;100190.00;;;8.69;100.00
43430;BME280;29028;43.234;27.896;2022-12-07T05:58:33;100185.63;;;8.68;100.00
43430;BME280;29028;43.234;27.896;2022-12-07T05:59:12;100182.59;;;8.71;100.00
43430;BME280;29028;43.234;27.896;2022-12-07T05:59:42;100189.00;;;8.70;100.00
43430;BME280;29028;43.234;27.896;2022-12-07T06:00:04;100190.19;;;8.68;100.00
43430;BME280;29028;43.234;27.896;2022-12-07T06:00:26;100191.38;;;8.65;100.00
43430;BME280;29028;43.234;27.896;2022-12-07T06:00:47;100181.66;;;8.64;100.00
43430;BME280;29028;43.234;27.896;2022-12-07T06:01:08;100188.50;;;8.67;100.00
43430;BME280;29028;43.234;27.896;2022-12-07T06:01:28;100193.50;;;8.70;100.00
43430;BME280;29028;43.234;27.896;2022-12-07T06:01:50;100185.84;;;8.67;100.00
43430;BME280;29028;43.234;27.896;2022-12-07T06:02:13;100190.00;;;8.69;100.00
43430;BME280;29028;43.234;27.896;2022-12-07T06:02:35;100193.88;;;8.67;100.00
43430;BME280;29028;43.234;27.896;2022-12-07T06:02:56;100190.19;;;8.68;100.00
43430;BME280;29028;43.234;27.896;2022-12-07T06:03:17;100191.66;;;8.70;100.00
43430;BME280;29028;43.234;27.896;2022-12-07T06:03:38;100187.50;;;8.68;100.00
43430;BME280;29028;43.234;27.896;2022-12-07T06:04:00;100190.00;;;8.69;100.00
43430;BME280;29028;43.234;27.896;2022-12-07T06:04:24;100185.47;;;8.70;100.00
43430;BME280;29028;43.234;27.896;2022-12-07T06:04:46;100184.75;;;8.76;100.00
43430;BME280;29028;43.234;27.896;2022-12-07T06:05:07;100197.19;;;8.77;100.00
43430;BME280;29028;43.234;27.896;2022-12-07T06:05:29;100188.09;;;8.78;100.00
43430;BME280;29028;43.234;27.896;2022-12-07T06:05:51;100187.72;;;8.81;100.00
43430;BME280;29028;43.234;27.896;2022-12-07T06:06:12;100190.38;;;8.89;100.00
43430;BME280;29028;43.234;27.896;2022-12-07T06:06:33;100193.56;;;8.84;100.00
43430;BME280;29028;43.234;27.896;2022-12-07T06:06:54;100180.88;;;8.78;100.00
43430;BME280;29028;43.234;27.896;2022-12-07T06:07:17;100188.56;;;8.81;100.00
43430;BME280;29028;43.234;27.896;2022-12-07T06:07:37;100177.16;;;8.79;100.00
43430;BME280;29028;43.234;27.896;2022-12-07T06:07:58;100187.00;;;8.87;100.00
43430;BME280;29028;43.234;27.896;2022-12-07T06:08:19;100195.91;;;8.87;100.00
43430;BME280;29028;43.234;27.896;2022-12-07T06:08:41;100194.06;;;8.88;100.00
43430;BME280;29028;43.234;27.896;2022-12-07T06:09:04;100186.53;;;8.83;100.00
43430;BME280;29028;43.234;27.896;2022-12-07T06:09:27;100195.91;;;8.87;100.00
43430;BME280;29028;43.234;27.896;2022-12-07T06:09:48;100192.03;;;8.90;100.00
43430;BME280;29028;43.234;27.896;2022-12-07T06:10:10;100191.06;;;9.05;100.00
43430;BME280;29028;43.234;27.896;2022-12-07T06:10:31;100194.91;;;9.11;100.00
43430;BME280;29028;43.234;27.896;2022-12-07T06:10:51;100194.44;;;9.07;100.00
43430;BME280;29028;43.234;27.896;2022-12-07T06:11:32;100199.50;;;9.02;100.00
43430;BME280;29028;43.234;27.896;2022-12-07T06:12:12;100192.81;;;8.98;100.00
43430;BME280;29028;43.234;27.896;2022-12-07T06:12:51;100188.28;;;8.99;100.00
43430;BME280;29028;43.234;27.896;2022-12-07T06:13:12;100191.78;;;8.99;100.00
43430;BME280;29028;43.234;27.896;2022-12-07T06:13:34;100197.63;;;9.03;100.00
43430;BME280;29028;43.234;27.896;2022-12-07T06:13:55;100194.94;;;9.03;100.00
43430;BME280;29028;43.234;27.896;2022-12-07T06:14:16;100191.44;;;9.02;100.00
43430;BME280;29028;43.234;27.896;2022-12-07T06:14:37;100193.09;;;9.03;100.00
43430;BME280;29028;43.234;27.896;2022-12-07T06:14:59;100198.78;;;9.08;100.00
43430;BME280;29028;43.234;27.896;2022-12-07T06:15:20;100191.53;;;9.09;100.00
43430;BME280;29028;43.234;27.896;2022-12-07T06:15:43;100186.53;;;9.06;100.00
43430;BME280;29028;43.234;27.896;2022-12-07T06:16:06;100187.09;;;9.01;100.00
43430;BME280;29028;43.234;27.896;2022-12-07T06:16:26;100196.44;;;9.05;100.00
43430;BME280;29028;43.234;27.896;2022-12-07T06:16:47;100193.22;;;9.10;100.00
43430;BME280;29028;43.234;27.896;2022-12-07T06:17:09;100189.53;;;9.11;100.00
43430;BME280;29028;43.234;27.896;2022-12-07T06:17:32;100196.09;;;9.08;100.00
43430;BME280;29028;43.234;27.896;2022-12-07T06:17:53;100200.09;;;9.12;100.00
43430;BME280;29028;43.234;27.896;2022-12-07T06:18:14;100203.44;;;9.14;100.00
43430;BME280;29028;43.234;27.896;2022-12-07T06:18:34;100200.91;;;9.13;100.00
43430;BME280;29028;43.234;27.896;2022-12-07T06:18:55;100188.22;;;9.07;100.00
43430;BME280;29028;43.234;27.896;2022-12-07T06:19:17;100194.00;;;9.18;100.00
43430;BME280;29028;43.234;27.896;2022-12-07T06:19:38;100190.63;;;9.16;100.00
43430;BME280;29028;43.234;27.896;2022-12-07T06:19:59;100200.00;;;9.20;100.00
43430;BME280;29028;43.234;27.896;2022-12-07T06:20:21;100198.25;;;9.27;100.00
43430;BME280;29028;43.234;27.896;2022-12-07T06:20:42;100192.06;;;9.27;100.00
43430;BME280;29028;43.234;27.896;2022-12-07T06:21:03;100191.22;;;9.26;100.00
43430;BME280;29028;43.234;27.896;2022-12-07T06:21:23;100199.94;;;9.28;100.00
43430;BME280;29028;43.234;27.896;2022-12-07T06:21:46;100203.84;;;9.26;100.00
43430;BME280;29028;43.234;27.896;2022-12-07T06:22:08;100190.41;;;9.26;100.00
43430;BME280;29028;43.234;27.896;2022-12-07T06:22:30;100203.28;;;9.30;100.00
43430;BME280;29028;43.234;27.896;2022-12-07T06:22:52;100196.03;;;9.31;100.00
43430;BME280;29028;43.234;27.896;2022-12-07T06:23:13;100204.88;;;9.39;100.00
43430;BME280;29028;43.234;27.896;2022-12-07T06:23:34;100200.16;;;9.41;100.00
43430;BME280;29028;43.234;27.896;2022-12-07T06:23:55;100199.16;;;9.42;100.00
43430;BME280;29028;43.234;27.896;2022-12-07T06:24:17;100199.78;;;9.44;100.00
43430;BME280;29028;43.234;27.896;2022-12-07T06:24:39;100201.28;;;9.47;100.00
43430;BME280;29028;43.234;27.896;2022-12-07T06:25:00;100201.47;;;9.45;100.00
43430;BME280;29028;43.234;27.896;2022-12-07T06:25:22;100192.41;;;9.46;100.00
43430;BME280;29028;43.234;27.896;2022-12-07T06:25:45;100201.78;;;9.50;100.00
43430;BME280;29028;43.234;27.896;2022-12-07T06:26:06;100197.03;;;9.52;100.00
43430;BME280;29028;43.234;27.896;2022-12-07T06:26:26;100202.88;;;9.56;100.00
43430;BME280;29028;43.234;27.896;2022-12-07T06:26:47;100199.16;;;9.57;100.00
43430;BME280;29028;43.234;27.896;2022-12-07T06:27:09;100201.69;;;9.58;100.00
43430;BME280;29028;43.234;27.896;2022-12-07T06:27:30;100199.63;;;9.60;100.00
43430;BME280;29028;43.234;27.896;2022-12-07T06:27:53;100204.66;;;9.63;100.00
43430;BME280;29028;43.234;27.896;2022-12-07T06:28:15;100206.13;;;9.66;100.00
43430;BME280;29028;43.234;27.896;2022-12-07T06:28:37;100199.19;;;9.71;100.00
43430;BME280;29028;43.234;27.896;2022-12-07T06:28:58;100196.69;;;9.70;100.00
43430;BME280;29028;43.234;27.896;2022-12-07T06:29:19;100198.81;;;9.74;100.00
43430;BME280;29028;43.234;27.896;2022-12-07T06:29:42;100195.84;;;9.69;100.00
43430;BME280;29028;43.234;27.896;2022-12-07T06:30:04;100197.97;;;9.74;100.00
43430;BME280;29028;43.234;27.896;2022-12-07T06:30:26;100195.56;;;9.79;100.00
43430;BME280;29028;43.234;27.896;2022-12-07T06:30:56;100199.41;;;9.84;100.00
43430;BME280;29028;43.234;27.896;2022-12-07T06:31:17;100201.06;;;9.85;100.00
43430;BME280;29028;43.234;27.896;2022-12-07T06:31:38;100197.81;;;9.90;100.00
43430;BME280;29028;43.234;27.896;2022-12-07T06:31:59;100198.75;;;9.97;100.00
43430;BME280;29028;43.234;27.896;2022-12-07T06:32:21;100197.72;;;9.98;100.00
43430;BME280;29028;43.234;27.896;2022-12-07T06:32:43;100199.31;;;10.07;100.00
43430;BME280;29028;43.234;27.896;2022-12-07T06:33:04;100200.03;;;10.15;100.00
43430;BME280;29028;43.234;27.896;2022-12-07T06:33:25;100196.41;;;10.23;100.00
43430;BME280;29028;43.234;27.896;2022-12-07T06:33:47;100203.94;;;10.42;100.00
43430;BME280;29028;43.234;27.896;2022-12-07T06:34:10;100193.56;;;10.60;100.00
43430;BME280;29028;43.234;27.896;2022-12-07T06:34:32;100198.53;;;10.77;100.00
43430;BME280;29028;43.234;27.896;2022-12-07T06:34:53;100196.69;;;10.99;100.00
43430;BME280;29028;43.234;27.896;2022-12-07T06:35:14;100190.84;;;11.16;100.00
43430;BME280;29028;43.234;27.896;2022-12-07T06:35:35;100193.91;;;11.34;100.00
43430;BME280;29028;43.234;27.896;2022-12-07T06:35:56;100192.31;;;11.40;100.00
43430;BME280;29028;43.234;27.896;2022-12-07T06:36:18;100202.81;;;11.56;100.00
43430;BME280;29028;43.234;27.896;2022-12-07T06:36:39;100201.88;;;11.63;100.00
43430;BME280;29028;43.234;27.896;2022-12-07T06:37:00;100194.69;;;11.77;100.00
43430;BME280;29028;43.234;27.896;2022-12-07T06:37:22;100196.59;;;11.83;100.00
43430;BME280;29028;43.234;27.896;2022-12-07T06:37:42;100200.78;;;11.92;100.00
43430;BME280;29028;43.234;27.896;2022-12-07T06:38:03;100196.06;;;12.00;99.24
43430;BME280;29028;43.234;27.896;2022-12-07T06:38:24;100195.31;;;12.13;98.37
43430;BME280;29028;43.234;27.896;2022-12-07T06:38:46;100200.28;;;12.09;97.26
43430;BME280;29028;43.234;27.896;2022-12-07T06:39:07;100201.94;;;12.10;96.45
43430;BME280;29028;43.234;27.896;2022-12-07T06:39:29;100188.97;;;12.33;96.06
43430;BME280;29028;43.234;27.896;2022-12-07T06:39:51;100195.69;;;12.44;95.39
43430;BME280;29028;43.234;27.896;2022-12-07T06:40:12;100198.56;;;12.42;94.29
43430;BME280;29028;43.234;27.896;2022-12-07T06:40:33;100195.94;;;12.55;93.78
43430;BME280;29028;43.234;27.896;2022-12-07T06:40:54;100205.31;;;12.66;93.02
43430;BME280;29028;43.234;27.896;2022-12-07T06:41:15;100189.34;;;12.71;92.41
43430;BME280;29028;43.234;27.896;2022-12-07T06:41:37;100194.16;;;12.88;91.50
43430;BME280;29028;43.234;27.896;2022-12-07T06:41:58;100194.47;;;13.13;91.15
43430;BME280;29028;43.234;27.896;2022-12-07T06:42:19;100193.00;;;13.30;90.54
43430;BME280;29028;43.234;27.896;2022-12-07T06:42:41;100197.59;;;13.49;89.68
43430;BME280;29028;43.234;27.896;2022-12-07T06:43:02;100199.25;;;13.63;88.85
43430;BME280;29028;43.234;27.896;2022-12-07T06:43:23;100205.06;;;13.79;88.08
43430;BME280;29028;43.234;27.896;2022-12-07T06:43:43;100197.53;;;13.94;87.29
43430;BME280;29028;43.234;27.896;2022-12-07T06:44:04;100196.69;;;14.07;86.53
43430;BME280;29028;43.234;27.896;2022-12-07T06:44:26;100197.09;;;14.17;85.56
43430;BME280;29028;43.234;27.896;2022-12-07T06:44:47;100200.19;;;14.27;85.01
43430;BME280;29028;43.234;27.896;2022-12-07T06:45:09;100193.31;;;14.31;84.55
43430;BME280;29028;43.234;27.896;2022-12-07T06:45:29;100193.69;;;14.41;84.08
43430;BME280;29028;43.234;27.896;2022-12-07T06:45:51;100195.94;;;14.50;83.48
43430;BME280;29028;43.234;27.896;2022-12-07T06:46:12;100196.13;;;14.55;82.92
43430;BME280;29028;43.234;27.896;2022-12-07T06:46:33;100195.72;;;14.52;81.92
43430;BME280;29028;43.234;27.896;2022-12-07T06:46:55;100197.81;;;14.50;80.88
43430;BME280;29028;43.234;27.896;2022-12-07T06:47:17;100192.81;;;14.47;80.63
43430;BME280;29028;43.234;27.896;2022-12-07T06:47:38;100199.56;;;14.38;80.03
43430;BME280;29028;43.234;27.896;2022-12-07T06:48:00;100203.72;;;14.34;80.11
43430;BME280;29028;43.234;27.896;2022-12-07T06:48:21;100198.91;;;14.36;80.56
43430;BME280;29028;43.234;27.896;2022-12-07T06:48:43;100201.00;;;14.34;80.34
43430;BME280;29028;43.234;27.896;2022-12-07T06:49:04;100192.03;;;14.33;80.40
43430;BME280;29028;43.234;27.896;2022-12-07T06:49:25;100204.13;;;14.37;80.00
43430;BME280;29028;43.234;27.896;2022-12-07T06:49:47;100202.25;;;14.38;79.94
43430;BME280;29028;43.234;27.896;2022-12-07T06:50:08;100199.56;;;14.38;79.85
43430;BME280;29028;43.234;27.896;2022-12-07T06:50:29;100196.19;;;14.36;79.70
43430;BME280;29028;43.234;27.896;2022-12-07T06:50:50;100200.56;;;14.37;79.62
43430;BME280;29028;43.234;27.896;2022-12-07T06:51:11;100194.59;;;14.22;79.52
43430;BME280;29028;43.234;27.896;2022-12-07T06:51:34;100195.81;;;14.26;79.63
43430;BME280;29028;43.234;27.896;2022-12-07T06:51:56;100206.25;;;14.22;79.63
43430;BME280;29028;43.234;27.896;2022-12-07T06:52:17;100199.56;;;14.18;79.68
43430;BME280;29028;43.234;27.896;2022-12-07T06:52:38;100203.34;;;14.24;79.91
43430;BME280;29028;43.234;27.896;2022-12-07T06:53:00;100199.56;;;14.25;79.70
43430;BME280;29028;43.234;27.896;2022-12-07T06:53:21;100199.16;;;14.15;79.57
43430;BME280;29028;43.234;27.896;2022-12-07T06:53:42;100200.41;;;14.25;79.92
43430;BME280;29028;43.234;27.896;2022-12-07T06:54:03;100201.00;;;14.34;79.83